Portada
METAR-TAF:

METAR-TAF

Aeroports :

Ilo, Perú

latitud: 17-41-45S, longitud: 071-20-35W, altitud: 22 m

Observació

L'informe es va fer fa 8 hores i 41 minuts, a les 18:00 UTC
Vent 8 kt del Sud/Sud-Est
Temperatura 23°C
Humitat 73%
Pressió 1013 hPa
Visibilitat 10 km o més
sense núvols per sota de 1500 mi sense presència de cumulonimbus.

METAR: SPLO 041800Z 15008KT CAVOK 23/18 Q1013 RMK PP000

Hora: 21:41 (02:41 UTC)

Pronòstic

L'informe es va fer fa 13 hores i 29 minuts, a les 13:12 UTC
Pronòstic vàlid del 04 a les 12 UTC al 05 a les 12 UTC
Vent 8 kt del Sud/Sud-Est
Visibilitat 10 km o més
sense núvols per sota de 1500 mi sense presència de cumulonimbus.
A partir de les 05 a les 0100 UTC
Vent 5 kt del Sud-Est
Visibilitat 10 km o més
Cel ennuvolat a una alçada de 2500 ft

TAF: SPLO 041312Z 0412/0512 16008KT CAVOK TX24/0419Z TN14/0510Z FM050100 14005KT 9999 BKN025

Observacions i pronòstics meteorològics de més de 4000 aeroports (METAR i TAF).

Les estacions disponibles són els punts grocs i vermells al mapa.

Posi el ratolí al punt desitjat per veure el nom de l'estació.

Feu clic per veure les observacions i els pronòstics meteorològics.

Per canviar el mapa: feu clic els botons verds amb una creu de color negre per apropar; al botó verd amb un guió per allunyar la imatge; o en les fletxes verdes per a mapes adjacents.


METAR-TAF: